Inca Manco Capac International Airport
SPJL : rendu visible

Aérodrome :











RETROUVEZ-NOUS SUR...

 
LOGIN :

S'inscrire | Disclaimer

   EN    FR    IT 

 









Légende :    VFR   VFR Marginal   IFR   IFR Intensif   IFR Très Intensif
Visi : 
Plafond : 
>= 8 km
>= 3000ft
5 à 8 km
1000 à 3000 ft
1500m à 5 km
500 à 1000 ft
800 à 1500m
200 à 500 ft
< 800m
< 200 ft
Symboles :   Orages  Brouillard  Fortes neiges  Fortes précipitations  Vent > 20 kt






- Altitude de l'aérodrome : 12552 ft
- Code IATA : JUL


SPJL - Inca Manco Capac International

METAR N/A
TAF TAF SPJL
Valide du 06 à 12h jusqu'au 07 à 12h UTC


061330Z 0612/0712 17004KT 9999 SCT020 TX16/0619Z TNM05/0711Z
FM061600 32006KT 9999 SCT020 SCT080
FM061600 27008KT 9999 FEW020 SCT100
FM070000 24004KT 9999 SCT015
FIR SPIM / Amérique du Sud



MET'MAP, la Météo Aéronautique d'un coup d'oeil ! - Copyright ORBIFLY Décembre 2007 - Disclaimer

ORBIFLY MET'MAP TEAM :

Programmation & Développement : Alexandra Zaïnal
Sur une idée originale de : Baudouin d'Aumeries
Assistance à la programmation : Marc-Olivier Méhu
Soutien technique & logistique : Manuel Goepfert

Contact : metmap@orbifly.com




SOURCES & CREDITS :

   NOAA       Earth
Advisory